createdAt,value
2023-03-12T00:00:59.426Z,0
2023-03-12T00:01:59.436Z,0
2023-03-12T00:03:00.790Z,0
2023-03-12T00:04:00.301Z,0
2023-03-12T00:05:02.368Z,0
2023-03-12T00:06:10.162Z,0
2023-03-12T00:07:02.535Z,0
2023-03-12T00:08:02.861Z,0
2023-03-12T00:09:07.219Z,0
2023-03-12T00:10:05.721Z,0
2023-03-12T00:11:06.204Z,0
2023-03-12T00:12:06.149Z,0
2023-03-12T00:13:06.638Z,0
2023-03-12T00:14:06.848Z,0
2023-03-12T00:15:07.816Z,0
2023-03-12T00:16:08.651Z,0
2023-03-12T00:17:08.912Z,0
2023-03-12T00:18:08.538Z,0
2023-03-12T00:19:09.165Z,0
2023-03-12T00:20:10.802Z,0
2023-03-12T00:21:11.076Z,0
2023-03-12T00:22:11.322Z,0
2023-03-12T00:23:11.646Z,0
2023-03-12T00:24:12.138Z,0
2023-03-12T00:25:12.416Z,0
2023-03-12T00:26:13.158Z,0
2023-03-12T00:27:14.065Z,0
2023-03-12T00:28:13.966Z,0
2023-03-12T00:29:15.191Z,0
2023-03-12T00:30:16.399Z,0
2023-03-12T00:31:16.575Z,0
2023-03-12T00:32:17.157Z,0
2023-03-12T00:33:17.680Z,0
2023-03-12T00:34:17.305Z,0
2023-03-12T00:35:18.660Z,0
2023-03-12T00:36:18.933Z,0
2023-03-12T00:37:20.193Z,0
2023-03-12T00:38:21.411Z,0
2023-03-12T00:39:21.642Z,0
2023-03-12T00:40:21.565Z,0
2023-03-12T00:41:22.781Z,0
2023-03-12T00:42:23.133Z,0
2023-03-12T00:43:24.062Z,0
2023-03-12T00:44:25.266Z,0
2023-03-12T00:45:25.476Z,0
2023-03-12T00:46:26.264Z,0
2023-03-12T00:47:27.515Z,0
2023-03-12T00:48:28.163Z,0
2023-03-12T00:49:29.682Z,0
2023-03-12T00:50:30.050Z,0
2023-03-12T00:51:29.983Z,0
2023-03-12T00:52:30.928Z,0
2023-03-12T00:53:31.835Z,0
2023-03-12T00:54:32.731Z,0
2023-03-12T00:55:33.943Z,0
2023-03-12T00:56:34.042Z,0
2023-03-12T00:57:33.664Z,0
2023-03-12T00:58:34.871Z,0
2023-03-12T00:59:35.069Z,0
2023-03-12T01:00:36.140Z,0
2023-03-12T01:01:36.654Z,0
2023-03-12T01:02:36.589Z,0
2023-03-12T01:03:37.886Z,0
2023-03-12T01:04:38.533Z,0
2023-03-12T01:05:40.703Z,0
2023-03-12T01:06:39.499Z,0
2023-03-12T01:07:40.165Z,0
2023-03-12T01:08:41.388Z,0
2023-03-12T01:09:41.595Z,0
2023-03-12T01:10:42.221Z,0
2023-03-12T01:11:43.160Z,0
2023-03-12T01:12:44.372Z,0
2023-03-12T01:13:44.283Z,0
2023-03-12T01:14:45.217Z,0
2023-03-12T01:15:46.313Z,0
2023-03-12T01:16:45.865Z,0
2023-03-12T01:17:45.825Z,0
2023-03-12T01:18:46.470Z,0
2023-03-12T01:19:47.681Z,0
2023-03-12T01:20:48.069Z,0
2023-03-12T01:21:48.296Z,0
2023-03-12T01:22:49.265Z,0
2023-03-12T01:23:50.478Z,0
2023-03-12T01:24:50.407Z,0
2023-03-12T01:25:51.366Z,0
2023-03-12T01:26:51.969Z,0
2023-03-12T01:27:51.869Z,0
2023-03-12T01:28:53.078Z,0
2023-03-12T01:29:53.277Z,0
2023-03-12T01:30:53.511Z,0
2023-03-12T01:31:54.100Z,0
2023-03-12T01:32:54.581Z,0
2023-03-12T01:33:54.537Z,0
2023-03-12T01:34:54.754Z,0
2023-03-12T01:35:56.900Z,0
2023-03-12T01:36:56.818Z,0
2023-03-12T01:37:56.460Z,0
2023-03-12T01:38:57.118Z,0
2023-03-12T01:39:58.314Z,0
2023-03-12T01:40:58.536Z,0
2023-03-12T01:41:58.775Z,0
2023-03-12T01:42:58.966Z,0
2023-03-12T01:43:58.885Z,0
2023-03-12T01:44:59.841Z,0
2023-03-12T01:46:00.936Z,0
2023-03-12T01:47:01.514Z,0
2023-03-12T01:48:01.732Z,0
2023-03-12T01:49:01.990Z,0
2023-03-12T01:50:02.183Z,0
2023-03-12T01:51:02.848Z,0
2023-03-12T01:52:03.203Z,0
2023-03-12T01:53:03.553Z,0
2023-03-12T01:54:05.036Z,0
2023-03-12T01:55:04.957Z,0
2023-03-12T01:56:06.524Z,0
2023-03-12T01:57:06.640Z,0
2023-03-12T01:58:07.827Z,0
2023-03-12T01:59:08.755Z,0
2023-03-12T02:00:09.251Z,0
2023-03-12T02:01:10.034Z,0
2023-03-12T02:02:09.716Z,0
2023-03-12T02:03:11.227Z,0
2023-03-12T02:04:11.881Z,0
2023-03-12T02:05:11.786Z,0
2023-03-12T02:06:13.425Z,0
2023-03-12T02:07:13.774Z,0
2023-03-12T02:08:13.686Z,0
2023-03-12T02:09:13.890Z,0
2023-03-12T02:10:14.375Z,0
2023-03-12T02:11:14.314Z,0
2023-03-12T02:12:14.544Z,0
2023-03-12T02:13:15.478Z,0
2023-03-12T02:14:15.118Z,0
2023-03-12T02:15:16.031Z,0
2023-03-12T02:16:16.597Z,0
2023-03-12T02:17:16.535Z,0
2023-03-12T02:18:17.788Z,0
2023-03-12T02:19:17.703Z,0
2023-03-12T02:20:18.915Z,0
2023-03-12T02:21:19.541Z,0
2023-03-12T02:22:19.518Z,0
2023-03-12T02:23:20.449Z,0
2023-03-12T02:24:21.662Z,0
2023-03-12T02:25:21.003Z,0
2023-03-12T02:26:22.643Z,0
2023-03-12T02:27:22.638Z,0
2023-03-12T02:28:24.128Z,0
2023-03-12T02:29:23.879Z,0
2023-03-12T02:30:24.523Z,0
2023-03-12T02:31:26.437Z,0
2023-03-12T02:32:26.422Z,0
2023-03-12T02:33:27.714Z,0
2023-03-12T02:34:28.067Z,0
2023-03-12T02:35:29.384Z,0
2023-03-12T02:36:30.045Z,0
2023-03-12T02:37:30.435Z,0
2023-03-12T02:38:30.782Z,0
2023-03-12T02:39:31.696Z,0
2023-03-12T02:40:32.191Z,0
2023-03-12T02:41:32.407Z,0
2023-03-12T02:42:33.037Z,0
2023-03-12T02:43:34.245Z,0
2023-03-12T02:44:34.752Z,0
2023-03-12T02:45:35.129Z,0
2023-03-12T02:46:35.782Z,0
2023-03-12T02:47:38.500Z,0
2023-03-12T02:48:36.702Z,0
2023-03-12T02:49:38.047Z,0
2023-03-12T02:50:37.964Z,0
2023-03-12T02:51:39.401Z,0
2023-03-12T02:52:39.630Z,0
2023-03-12T02:53:39.260Z,0
2023-03-12T02:54:39.944Z,0
2023-03-12T02:55:41.154Z,0
2023-03-12T02:56:41.794Z,0
2023-03-12T02:57:43.137Z,0
2023-03-12T02:58:43.623Z,0
2023-03-12T02:59:43.013Z,0
2023-03-12T03:00:44.231Z,0
2023-03-12T03:01:44.826Z,0
2023-03-12T03:02:44.778Z,0
2023-03-12T03:03:46.004Z,0
2023-03-12T03:04:46.625Z,0
2023-03-12T03:05:46.547Z,0
2023-03-12T03:06:47.872Z,0
2023-03-12T03:07:47.294Z,0
2023-03-12T03:08:48.225Z,0
2023-03-12T03:09:49.178Z,0
2023-03-12T03:10:48.811Z,0
2023-03-12T03:11:50.040Z,0
2023-03-12T03:12:50.234Z,0
2023-03-12T03:13:50.433Z,0
2023-03-12T03:14:50.077Z,0
2023-03-12T03:15:51.008Z,0
2023-03-12T03:16:51.970Z,0
2023-03-12T03:17:52.584Z,0
2023-03-12T03:18:52.217Z,0
2023-03-12T03:19:53.158Z,0
2023-03-12T03:20:53.355Z,0
2023-03-12T03:21:54.016Z,0
2023-03-12T03:22:53.659Z,0
2023-03-12T03:23:54.616Z,0
2023-03-12T03:24:54.542Z,0
2023-03-12T03:25:55.758Z,0
2023-03-12T03:26:56.376Z,0
2023-03-12T03:27:57.419Z,0
2023-03-12T03:28:57.357Z,0
2023-03-12T03:29:58.107Z,0
2023-03-12T03:30:59.273Z,0
2023-03-12T03:31:59.777Z,0
2023-03-12T03:33:00.045Z,0
2023-03-12T03:33:59.981Z,0
2023-03-12T03:34:59.912Z,0
2023-03-12T03:36:01.597Z,0
2023-03-12T03:37:01.967Z,0
2023-03-12T03:38:02.045Z,0
2023-03-12T03:39:03.535Z,0
2023-03-12T03:40:03.457Z,0
2023-03-12T03:41:04.404Z,0
2023-03-12T03:42:05.184Z,0
2023-03-12T03:43:05.822Z,0
2023-03-12T03:44:07.323Z,0
2023-03-12T03:45:07.513Z,0
2023-03-12T03:46:08.700Z,0
2023-03-12T03:47:08.982Z,0
2023-03-12T03:48:09.022Z,0
2023-03-12T03:49:09.218Z,0
2023-03-12T03:50:09.581Z,0
2023-03-12T03:51:11.105Z,0
2023-03-12T03:52:11.479Z,0
2023-03-12T03:53:11.398Z,0
2023-03-12T03:54:12.069Z,0
2023-03-12T03:55:13.554Z,0
2023-03-12T03:56:13.766Z,0
2023-03-12T03:57:13.401Z,0
2023-03-12T03:58:14.445Z,0
2023-03-12T03:59:15.366Z,0
2023-03-12T04:00:18.334Z,0
2023-03-12T04:01:16.565Z,0
2023-03-12T04:02:16.782Z,0
2023-03-12T04:03:17.268Z,0
2023-03-12T04:04:17.524Z,0
2023-03-12T04:05:17.608Z,0
2023-03-12T04:06:18.753Z,0
2023-03-12T04:07:19.359Z,0
2023-03-12T04:08:19.083Z,0
2023-03-12T04:09:20.280Z,0
2023-03-12T04:10:20.792Z,0
2023-03-12T04:11:21.032Z,0
2023-03-12T04:12:21.264Z,0
2023-03-12T04:13:21.183Z,0
2023-03-12T04:14:22.389Z,0
2023-03-12T04:15:23.318Z,0
2023-03-12T04:16:23.980Z,0
2023-03-12T04:17:24.203Z,0
2023-03-12T04:18:25.180Z,0
2023-03-12T04:19:25.720Z,0
2023-03-12T04:20:25.937Z,0
2023-03-12T04:21:26.312Z,0
2023-03-12T04:22:26.916Z,0
2023-03-12T04:23:26.832Z,0
2023-03-12T04:24:28.328Z,0
2023-03-12T04:25:28.285Z,0
2023-03-12T04:26:28.801Z,0
2023-03-12T04:27:29.075Z,0
2023-03-12T04:28:30.091Z,0
2023-03-12T04:29:30.299Z,0
2023-03-12T04:30:30.223Z,0
2023-03-12T04:31:31.476Z,0
2023-03-12T04:32:31.787Z,0
2023-03-12T04:33:32.370Z,0
2023-03-12T04:34:32.028Z,0
2023-03-12T04:35:32.396Z,0
2023-03-12T04:36:34.604Z,0
2023-03-12T04:37:34.220Z,0
2023-03-12T04:38:34.834Z,0
2023-03-12T04:39:35.030Z,0
2023-03-12T04:40:35.583Z,0
2023-03-12T04:41:35.551Z,0
2023-03-12T04:42:36.053Z,0
2023-03-12T04:43:36.247Z,0
2023-03-12T04:44:36.588Z,0
2023-03-12T04:45:36.784Z,0
2023-03-12T04:46:38.198Z,0
2023-03-12T04:47:38.403Z,0
2023-03-12T04:48:39.133Z,0
2023-03-12T04:49:39.361Z,0
2023-03-12T04:50:40.311Z,0
2023-03-12T04:51:41.533Z,0
2023-03-12T04:52:42.153Z,0
2023-03-12T04:53:43.068Z,0
2023-03-12T04:54:43.317Z,0
2023-03-12T04:55:43.526Z,0
2023-03-12T04:56:44.470Z,0
2023-03-12T04:57:44.969Z,0
2023-03-12T04:58:44.731Z,0
2023-03-12T04:59:46.226Z,0
2023-03-12T05:00:45.860Z,0
2023-03-12T05:01:47.091Z,0
2023-03-12T05:02:47.274Z,0
2023-03-12T05:03:47.537Z,0
2023-03-12T05:04:50.213Z,0
2023-03-12T05:05:48.150Z,0
2023-03-12T05:06:49.344Z,0
2023-03-12T05:07:50.694Z,0
2023-03-12T05:08:50.409Z,0
2023-03-12T05:09:51.632Z,0
2023-03-12T05:10:51.266Z,0
2023-03-12T05:11:55.169Z,0
2023-03-12T05:12:53.400Z,0
2023-03-12T05:13:53.893Z,0
2023-03-12T05:14:53.856Z,0
2023-03-12T05:15:54.139Z,0
2023-03-12T05:16:54.665Z,0
2023-03-12T05:17:54.880Z,0
2023-03-12T05:18:55.584Z,0
2023-03-12T05:19:55.772Z,0
2023-03-12T05:20:55.396Z,0
2023-03-12T05:21:56.017Z,0
2023-03-12T05:22:57.638Z,0
2023-03-12T05:23:57.543Z,0
2023-03-12T05:24:58.767Z,0
2023-03-12T05:25:58.964Z,0
2023-03-12T05:26:59.467Z,0
2023-03-12T05:27:59.109Z,0
2023-03-12T05:29:00.421Z,0
2023-03-12T05:30:00.729Z,0
2023-03-12T05:31:00.968Z,0
2023-03-12T05:32:01.263Z,0
2023-03-12T05:33:01.372Z,0
2023-03-12T05:34:04.173Z,0
2023-03-12T05:35:02.112Z,0
2023-03-12T05:36:03.431Z,0
2023-03-12T05:37:03.935Z,0
2023-03-12T05:38:04.264Z,0
2023-03-12T05:39:04.308Z,0
2023-03-12T05:40:05.512Z,0
2023-03-12T05:41:06.459Z,0
2023-03-12T05:42:06.083Z,0
2023-03-12T05:43:07.295Z,0
2023-03-12T05:44:07.667Z,0
2023-03-12T05:45:07.587Z,0
2023-03-12T05:46:09.644Z,0
2023-03-12T05:47:10.034Z,0
2023-03-12T05:48:09.976Z,0
2023-03-12T05:49:11.279Z,0
2023-03-12T05:50:11.513Z,0
2023-03-12T05:51:11.443Z,0
2023-03-12T05:52:12.660Z,0
2023-03-12T05:53:13.280Z,0
2023-03-12T05:54:13.211Z,0
2023-03-12T05:55:14.128Z,0
2023-03-12T05:56:15.041Z,5.63
2023-03-12T05:57:16.260Z,5.63
2023-03-12T05:58:15.914Z,5.63
2023-03-12T05:59:17.269Z,5.63
2023-03-12T06:00:17.473Z,5.63
2023-03-12T06:01:16.813Z,5.63
2023-03-12T06:02:18.652Z,5.63
2023-03-12T06:03:19.048Z,5.63
2023-03-12T06:04:19.331Z,11.25
2023-03-12T06:05:19.827Z,11.25
2023-03-12T06:06:20.050Z,11.25
2023-03-12T06:07:20.548Z,11.25
2023-03-12T06:08:21.266Z,11.25
2023-03-12T06:09:20.398Z,11.25
2023-03-12T06:10:21.027Z,11.25
2023-03-12T06:11:21.960Z,11.25
2023-03-12T06:12:22.458Z,11.25
2023-03-12T06:13:21.864Z,11.25
2023-03-12T06:14:22.834Z,11.25
2023-03-12T06:15:23.770Z,16.88
2023-03-12T06:16:23.725Z,16.88
2023-03-12T06:17:24.673Z,16.88
2023-03-12T06:18:25.881Z,16.88
2023-03-12T06:19:25.910Z,11.25
2023-03-12T06:20:26.826Z,11.25
2023-03-12T06:21:27.488Z,16.88
2023-03-12T06:22:28.689Z,16.88
2023-03-12T06:23:32.946Z,16.88
2023-03-12T06:24:30.143Z,16.88
2023-03-12T06:25:30.631Z,16.88
2023-03-12T06:26:30.849Z,16.88
2023-03-12T06:27:32.058Z,22.5
2023-03-12T06:28:31.733Z,22.5
2023-03-12T06:29:33.325Z,22.5
2023-03-12T06:30:33.549Z,16.88
2023-03-12T06:31:35.957Z,16.88
2023-03-12T06:32:34.606Z,16.88
2023-03-12T06:33:35.135Z,16.88
2023-03-12T06:34:34.813Z,16.88
2023-03-12T06:35:35.990Z,16.88
2023-03-12T06:36:35.904Z,16.88
2023-03-12T06:37:36.820Z,16.88
2023-03-12T06:38:37.435Z,22.5
2023-03-12T06:39:37.543Z,22.5
2023-03-12T06:40:38.471Z,28.13
2023-03-12T06:41:39.494Z,28.13
2023-03-12T06:42:40.718Z,28.13
2023-03-12T06:43:40.663Z,28.13
2023-03-12T06:44:40.291Z,28.13
2023-03-12T06:45:41.788Z,33.75
2023-03-12T06:46:42.874Z,33.75
2023-03-12T06:47:42.180Z,33.75
2023-03-12T06:48:42.420Z,33.75
2023-03-12T06:49:43.041Z,33.75
2023-03-12T06:50:42.688Z,28.13
2023-03-12T06:51:43.611Z,28.13
2023-03-12T06:52:43.533Z,28.13
2023-03-12T06:53:47.850Z,28.13
2023-03-12T06:54:45.362Z,28.13
2023-03-12T06:55:45.553Z,28.13
2023-03-12T06:56:45.756Z,28.13
2023-03-12T06:57:46.402Z,28.13
2023-03-12T06:58:47.052Z,33.75
2023-03-12T06:59:50.483Z,39.38
2023-03-12T07:00:48.302Z,39.38
2023-03-12T07:01:49.750Z,45
2023-03-12T07:02:49.774Z,50.63
2023-03-12T07:03:50.127Z,56.25
2023-03-12T07:04:51.179Z,56.25
2023-03-12T07:05:52.118Z,50.63
2023-03-12T07:06:52.593Z,45
2023-03-12T07:07:53.104Z,39.38
2023-03-12T07:08:53.507Z,28.13
2023-03-12T07:09:53.004Z,28.13
2023-03-12T07:10:54.524Z,22.5
2023-03-12T07:11:55.023Z,22.5
2023-03-12T07:12:54.979Z,22.5
2023-03-12T07:13:54.917Z,28.13
2023-03-12T07:14:56.117Z,33.75
2023-03-12T07:15:56.517Z,39.38
2023-03-12T07:16:56.533Z,39.38
2023-03-12T07:17:57.253Z,45
2023-03-12T07:18:58.511Z,45
2023-03-12T07:20:01.284Z,50.63
2023-03-12T07:20:58.944Z,56.25
2023-03-12T07:22:00.178Z,61.88
2023-03-12T07:23:01.096Z,61.88
2023-03-12T07:24:02.433Z,61.88
2023-03-12T07:25:02.966Z,61.88
2023-03-12T07:26:02.980Z,61.88
2023-03-12T07:27:03.176Z,67.5
2023-03-12T07:28:03.088Z,67.5
2023-03-12T07:29:04.083Z,61.88
2023-03-12T07:30:04.817Z,61.88
2023-03-12T07:31:05.138Z,61.88
2023-03-12T07:32:05.640Z,61.88
2023-03-12T07:33:06.381Z,61.88
2023-03-12T07:34:06.199Z,61.88
2023-03-12T07:35:06.587Z,67.5
2023-03-12T07:36:09.179Z,73.13
2023-03-12T07:37:07.614Z,78.75
2023-03-12T07:38:07.696Z,78.75
2023-03-12T07:39:08.338Z,73.13
2023-03-12T07:40:09.004Z,73.13
2023-03-12T07:41:09.201Z,78.75
2023-03-12T07:42:09.363Z,84.38
2023-03-12T07:43:10.306Z,78.75
2023-03-12T07:44:10.665Z,73.13
2023-03-12T07:45:12.059Z,73.13
2023-03-12T07:46:12.351Z,73.13
2023-03-12T07:47:35.438Z,73.13
2023-03-12T07:48:12.843Z,78.75
2023-03-12T07:49:13.774Z,73.13
2023-03-12T07:50:14.490Z,73.13
2023-03-12T07:51:14.714Z,73.13
2023-03-12T07:52:15.564Z,73.13
2023-03-12T07:53:15.551Z,67.5
2023-03-12T07:54:17.174Z,73.13
2023-03-12T07:55:17.754Z,73.13
2023-03-12T07:56:18.794Z,73.13
2023-03-12T07:57:18.869Z,78.75
2023-03-12T07:58:19.856Z,78.75
2023-03-12T07:59:20.884Z,73.13
2023-03-12T08:00:21.198Z,73.13
2023-03-12T08:01:21.487Z,73.13
2023-03-12T08:02:22.329Z,73.13
2023-03-12T08:03:23.980Z,78.75
2023-03-12T08:04:23.805Z,78.75
2023-03-12T08:05:24.292Z,78.75
2023-03-12T08:06:24.909Z,73.13
2023-03-12T08:07:26.353Z,73.13
2023-03-12T08:08:25.618Z,78.75
2023-03-12T08:09:26.943Z,84.38
2023-03-12T08:10:27.703Z,90
2023-03-12T08:11:27.676Z,90
2023-03-12T08:12:27.737Z,90
2023-03-12T08:13:29.791Z,90
2023-03-12T08:14:30.473Z,95.63
2023-03-12T08:15:30.150Z,101.25
2023-03-12T08:16:31.020Z,106.88
2023-03-12T08:17:30.958Z,106.88
2023-03-12T08:18:32.202Z,106.88
2023-03-12T08:19:32.693Z,106.88
2023-03-12T08:20:33.042Z,95.63
2023-03-12T08:21:33.324Z,84.38
2023-03-12T08:22:34.253Z,73.13
2023-03-12T08:23:34.185Z,56.25
2023-03-12T08:24:35.791Z,45
2023-03-12T08:25:35.886Z,45
2023-03-12T08:26:36.367Z,45
2023-03-12T08:27:36.578Z,45
2023-03-12T08:28:37.098Z,45
2023-03-12T08:29:37.356Z,56.25
2023-03-12T08:30:41.360Z,67.5
2023-03-12T08:31:38.647Z,78.75
2023-03-12T08:32:39.715Z,95.63
2023-03-12T08:33:39.110Z,106.88
2023-03-12T08:34:39.344Z,112.5
2023-03-12T08:35:40.409Z,129.38
2023-03-12T08:36:40.629Z,146.25
2023-03-12T08:37:41.271Z,146.25
2023-03-12T08:38:42.534Z,151.88
2023-03-12T08:39:43.930Z,157.5
2023-03-12T08:40:44.218Z,151.88
2023-03-12T08:41:45.141Z,146.25
2023-03-12T08:42:45.366Z,129.38
2023-03-12T08:43:46.174Z,112.5
2023-03-12T08:44:46.691Z,112.5
2023-03-12T08:45:46.740Z,112.5
2023-03-12T08:46:47.985Z,129.38
2023-03-12T08:47:48.494Z,135
2023-03-12T08:48:49.015Z,135
2023-03-12T08:49:49.243Z,163.13
2023-03-12T08:50:49.564Z,180
2023-03-12T08:51:49.487Z,174.38
2023-03-12T08:52:50.424Z,135
2023-03-12T08:53:51.965Z,106.88
2023-03-12T08:54:52.313Z,90
2023-03-12T08:55:52.728Z,84.38
2023-03-12T08:56:52.229Z,84.38
2023-03-12T08:57:52.663Z,118.13
2023-03-12T08:58:53.907Z,168.75
2023-03-12T08:59:54.426Z,196.88
2023-03-12T09:00:54.810Z,168.75
2023-03-12T09:01:55.238Z,146.25
2023-03-12T09:02:54.868Z,151.88
2023-03-12T09:03:56.086Z,180
2023-03-12T09:04:56.343Z,191.25
2023-03-12T09:05:57.566Z,208.13
2023-03-12T09:06:57.780Z,219.38
2023-03-12T09:07:58.020Z,202.5
2023-03-12T09:08:57.688Z,191.25
2023-03-12T09:09:59.411Z,180
2023-03-12T09:10:59.551Z,191.25
2023-03-12T09:12:00.571Z,219.38
2023-03-12T09:13:01.313Z,202.5
2023-03-12T09:15:14.844Z,185.63
2023-03-12T09:15:31.762Z,174.38
2023-03-12T09:16:32.964Z,140.63
2023-03-12T09:17:32.935Z,129.38
2023-03-12T09:18:34.421Z,123.75
2023-03-12T09:19:34.663Z,129.38
2023-03-12T09:20:35.689Z,135
2023-03-12T09:21:35.741Z,135
2023-03-12T09:22:37.286Z,135
2023-03-12T09:23:37.791Z,140.63
2023-03-12T09:24:38.037Z,135
2023-03-12T09:25:39.368Z,123.75
2023-03-12T09:26:39.563Z,118.13
2023-03-12T09:27:40.484Z,118.13
2023-03-12T09:28:40.699Z,112.5
2023-03-12T09:29:57.143Z,118.13
2023-03-12T09:30:40.742Z,118.13
2023-03-12T09:31:41.133Z,118.13
2023-03-12T09:32:43.073Z,123.75
2023-03-12T09:33:43.319Z,135
2023-03-12T09:34:43.826Z,151.88
2023-03-12T09:35:44.574Z,168.75
2023-03-12T09:36:45.104Z,196.88
2023-03-12T09:37:45.299Z,213.75
2023-03-12T09:38:45.979Z,180
2023-03-12T09:39:46.936Z,180
2023-03-12T09:40:48.302Z,163.13
2023-03-12T09:41:48.460Z,146.25
2023-03-12T09:42:52.574Z,157.5
2023-03-12T09:43:50.519Z,168.75
2023-03-12T09:44:51.464Z,174.38
2023-03-12T09:45:52.217Z,174.38
2023-03-12T09:46:53.142Z,174.38
2023-03-12T09:47:54.670Z,196.88
2023-03-12T09:48:58.508Z,191.25
2023-03-12T09:49:54.868Z,185.63
2023-03-12T09:50:56.123Z,185.63
2023-03-12T09:51:56.304Z,168.75
2023-03-12T09:52:57.501Z,163.13
2023-03-12T09:53:58.055Z,140.63
2023-03-12T09:54:58.580Z,135
2023-03-12T09:55:59.000Z,140.63
2023-03-12T09:56:59.503Z,146.25
2023-03-12T09:57:59.446Z,157.5
2023-03-12T09:59:15.109Z,168.75
2023-03-12T09:59:59.180Z,168.75
2023-03-12T10:01:02.806Z,163.13
2023-03-12T10:07:05.348Z,151.88
2023-03-12T10:08:23.311Z,174.38
2023-03-12T10:09:05.082Z,185.63
2023-03-12T10:10:06.887Z,174.38
2023-03-12T10:11:07.536Z,174.38
2023-03-12T10:12:07.570Z,168.75
2023-03-12T10:13:08.219Z,174.38
2023-03-12T10:14:09.444Z,174.38
2023-03-12T10:15:09.361Z,196.88
2023-03-12T10:16:11.278Z,219.38
2023-03-12T10:17:09.944Z,219.38
2023-03-12T10:18:11.685Z,196.88
2023-03-12T10:19:11.703Z,191.25
2023-03-12T10:20:11.955Z,191.25
2023-03-12T10:21:12.168Z,185.63
2023-03-12T10:22:13.043Z,208.13
2023-03-12T10:23:14.300Z,230.63
2023-03-12T10:24:14.500Z,281.25
2023-03-12T10:25:14.705Z,286.88
2023-03-12T10:26:15.323Z,253.13
2023-03-12T10:27:15.327Z,438.75
2023-03-12T10:28:16.839Z,753.75
2023-03-12T10:29:16.598Z,1406.25
2023-03-12T10:30:17.266Z,416.25
2023-03-12T10:31:18.747Z,399.38
2023-03-12T10:32:19.178Z,258.75
2023-03-12T10:33:19.688Z,286.88
2023-03-12T10:34:19.909Z,264.38
2023-03-12T10:35:21.944Z,225
2023-03-12T10:36:21.454Z,168.75
2023-03-12T10:37:21.228Z,146.25
2023-03-12T10:38:22.428Z,140.63
2023-03-12T10:39:23.082Z,151.88
2023-03-12T10:40:23.789Z,174.38
2023-03-12T10:41:25.144Z,168.75
2023-03-12T10:42:24.976Z,174.38
2023-03-12T10:43:25.894Z,191.25
2023-03-12T10:44:26.849Z,191.25
2023-03-12T10:45:27.086Z,185.63
2023-03-12T10:46:28.057Z,191.25
2023-03-12T10:47:28.598Z,185.63
2023-03-12T10:48:28.822Z,191.25
2023-03-12T10:49:29.468Z,281.25
2023-03-12T10:50:30.413Z,270
2023-03-12T10:51:30.344Z,343.13
2023-03-12T10:52:31.349Z,258.75
2023-03-12T10:53:35.190Z,309.38
2023-03-12T10:54:33.721Z,275.63
2023-03-12T10:55:33.671Z,309.38
2023-03-12T10:56:34.673Z,315
2023-03-12T10:57:34.889Z,376.88
2023-03-12T10:58:35.396Z,320.63
2023-03-12T10:59:35.047Z,551.25
2023-03-12T11:00:35.688Z,303.75
2023-03-12T11:01:37.106Z,253.13
2023-03-12T11:02:37.686Z,253.13
2023-03-12T11:03:38.607Z,241.88
2023-03-12T11:04:41.650Z,253.13
2023-03-12T11:05:39.637Z,275.63
2023-03-12T11:06:41.150Z,253.13
2023-03-12T11:07:41.064Z,236.25
2023-03-12T11:08:41.695Z,219.38
2023-03-12T11:09:43.351Z,191.25
2023-03-12T11:10:43.678Z,168.75
2023-03-12T11:11:44.445Z,151.88
2023-03-12T11:12:44.462Z,140.63
2023-03-12T11:13:44.404Z,129.38
2023-03-12T11:14:45.608Z,123.75
2023-03-12T11:15:45.946Z,129.38
2023-03-12T11:16:49.063Z,123.75
2023-03-12T11:17:46.012Z,118.13
2023-03-12T11:18:47.238Z,106.88
2023-03-12T11:19:47.216Z,101.25
2023-03-12T11:20:48.147Z,106.88
2023-03-12T11:21:48.774Z,112.5
2023-03-12T11:22:51.579Z,118.13
2023-03-12T11:23:50.580Z,112.5
2023-03-12T11:24:50.493Z,118.13
2023-03-12T11:25:51.412Z,129.38
2023-03-12T11:26:53.047Z,135
2023-03-12T11:27:53.560Z,163.13
2023-03-12T11:28:53.913Z,168.75
2023-03-12T11:29:54.811Z,168.75
2023-03-12T11:30:55.187Z,174.38
2023-03-12T11:31:58.787Z,168.75
2023-03-12T11:32:56.472Z,163.13
2023-03-12T11:33:56.382Z,163.13
2023-03-12T11:34:57.021Z,163.13
2023-03-12T11:35:58.483Z,168.75
2023-03-12T11:36:58.700Z,168.75
2023-03-12T11:37:59.699Z,168.75
2023-03-12T11:39:00.641Z,163.13
2023-03-12T11:40:01.303Z,146.25
2023-03-12T11:41:01.945Z,146.25
2023-03-12T11:42:03.297Z,140.63
2023-03-12T11:43:03.370Z,135
2023-03-12T11:44:04.870Z,129.38
2023-03-12T11:45:05.121Z,123.75
2023-03-12T11:46:05.789Z,123.75
2023-03-12T11:47:07.214Z,118.13
2023-03-12T11:48:07.308Z,123.75
2023-03-12T11:49:07.099Z,123.75
2023-03-12T11:50:08.060Z,123.75
2023-03-12T11:51:09.012Z,123.75
2023-03-12T11:52:10.236Z,140.63
2023-03-12T11:53:10.546Z,151.88
2023-03-12T11:54:11.268Z,151.88
2023-03-12T11:55:13.800Z,140.63
2023-03-12T11:56:12.262Z,129.38
2023-03-12T11:57:13.944Z,123.75
2023-03-12T11:58:14.143Z,123.75
2023-03-12T11:59:13.788Z,118.13
2023-03-12T12:00:14.169Z,112.5
2023-03-12T12:01:15.097Z,106.88
2023-03-12T12:02:16.380Z,101.25
2023-03-12T12:03:16.916Z,101.25
2023-03-12T12:04:17.152Z,106.88
2023-03-12T12:05:16.820Z,101.25
2023-03-12T12:06:17.799Z,101.25
2023-03-12T12:07:18.747Z,112.5
2023-03-12T12:08:20.290Z,118.13
2023-03-12T12:09:20.250Z,118.13
2023-03-12T12:10:20.224Z,106.88
2023-03-12T12:11:21.756Z,95.63
2023-03-12T12:12:22.760Z,90
2023-03-12T12:13:21.506Z,90
2023-03-12T12:14:22.743Z,84.38
2023-03-12T12:15:23.266Z,84.38
2023-03-12T12:16:23.366Z,84.38
2023-03-12T12:17:23.308Z,84.38
2023-03-12T12:18:23.652Z,84.38
2023-03-12T12:19:24.925Z,84.38
2023-03-12T12:20:24.929Z,90
2023-03-12T12:21:26.424Z,90
2023-03-12T12:22:27.409Z,84.38
2023-03-12T12:23:27.458Z,84.38
2023-03-12T12:24:29.928Z,84.38
2023-03-12T12:25:28.325Z,84.38
2023-03-12T12:26:27.674Z,90
2023-03-12T12:27:29.539Z,95.63
2023-03-12T12:28:29.756Z,95.63
2023-03-12T12:29:29.834Z,90
2023-03-12T12:30:30.758Z,78.75
2023-03-12T12:31:32.143Z,78.75
2023-03-12T12:32:32.373Z,73.13
2023-03-12T12:33:32.824Z,73.13
2023-03-12T12:34:33.786Z,78.75
2023-03-12T12:35:33.741Z,78.75
2023-03-12T12:36:35.301Z,78.75
2023-03-12T12:37:34.963Z,84.38
2023-03-12T12:38:35.892Z,90
2023-03-12T12:39:36.834Z,95.63
2023-03-12T12:40:37.903Z,95.63
2023-03-12T12:41:38.158Z,90
2023-03-12T12:42:38.797Z,95.63
2023-03-12T12:43:39.181Z,95.63
2023-03-12T12:44:39.093Z,90
2023-03-12T12:45:42.586Z,84.38
2023-03-12T12:46:41.300Z,84.38
2023-03-12T12:47:41.511Z,84.38
2023-03-12T12:48:41.790Z,78.75
2023-03-12T12:49:43.243Z,73.13
2023-03-12T12:50:43.172Z,73.13
2023-03-12T12:51:42.830Z,73.13
2023-03-12T12:52:43.777Z,61.88
2023-03-12T12:53:44.790Z,50.63
2023-03-12T12:54:44.724Z,45
2023-03-12T12:55:45.960Z,45
2023-03-12T12:56:46.907Z,45
2023-03-12T12:57:47.540Z,50.63
2023-03-12T12:58:47.182Z,56.25
2023-03-12T12:59:48.758Z,61.88
2023-03-12T13:00:48.698Z,61.88
2023-03-12T13:01:50.183Z,67.5
2023-03-12T13:02:50.132Z,67.5
2023-03-12T13:03:52.157Z,67.5
2023-03-12T13:04:51.835Z,73.13
2023-03-12T13:05:52.775Z,73.13
2023-03-12T13:06:56.160Z,73.13
2023-03-12T13:07:53.381Z,73.13
2023-03-12T13:08:53.957Z,78.75
2023-03-12T13:09:53.307Z,78.75
2023-03-12T13:11:27.507Z,78.75
2023-03-12T13:11:54.452Z,78.75
2023-03-12T13:12:56.062Z,78.75
2023-03-12T13:13:56.293Z,84.38
2023-03-12T13:14:56.827Z,84.38
2023-03-12T13:15:57.200Z,90
2023-03-12T13:16:58.147Z,90
2023-03-12T13:17:59.411Z,78.75
2023-03-12T13:18:59.637Z,73.13
2023-03-12T13:20:12.985Z,73.13
2023-03-12T13:20:59.905Z,84.38
2023-03-12T13:22:01.533Z,90
2023-03-12T13:23:01.478Z,90
2023-03-12T13:24:01.749Z,90
2023-03-12T13:25:02.973Z,90
2023-03-12T13:26:04.209Z,90
2023-03-12T13:27:04.438Z,84.38
2023-03-12T13:28:05.799Z,78.75
2023-03-12T13:29:23.662Z,73.13
2023-03-12T13:30:06.320Z,67.5
2023-03-12T13:31:08.061Z,61.88
2023-03-12T13:32:08.008Z,50.63
2023-03-12T13:33:09.133Z,45
2023-03-12T13:34:10.156Z,39.38
2023-03-12T13:35:09.506Z,39.38
2023-03-12T13:36:10.945Z,45
2023-03-12T13:37:10.591Z,50.63
2023-03-12T13:38:11.894Z,56.25
2023-03-12T13:39:12.835Z,56.25
2023-03-12T13:40:13.795Z,50.63
2023-03-12T13:41:13.724Z,50.63
2023-03-12T13:42:15.216Z,56.25
2023-03-12T13:43:15.592Z,61.88
2023-03-12T13:44:16.328Z,61.88
2023-03-12T13:45:16.251Z,61.88
2023-03-12T13:46:18.580Z,67.5
2023-03-12T13:47:18.264Z,73.13
2023-03-12T13:48:18.754Z,73.13
2023-03-12T13:49:19.251Z,73.13
2023-03-12T13:50:18.894Z,78.75
2023-03-12T13:51:19.535Z,78.75